Home > Products > Valid Products > TAF

000
FTUS45 KPUB 290123 AAA
TAFCOS
TAF AMD
KCOS 290123Z 2901/2924 04007KT P6SM SCT150
     FM291600 17008KT P6SM FEW110 SCT250
     FM291900 16013KT P6SM SCT100 SCT250=



000
FTUS45 KPUB 290123 AAA
TAFCOS
TAF AMD
KCOS 290123Z 2901/2924 04007KT P6SM SCT150
     FM291600 17008KT P6SM FEW110 SCT250
     FM291900 16013KT P6SM SCT100 SCT250=



000
FTUS45 KPUB 290123 AAA
TAFCOS
TAF AMD
KCOS 290123Z 2901/2924 04007KT P6SM SCT150
     FM291600 17008KT P6SM FEW110 SCT250
     FM291900 16013KT P6SM SCT100 SCT250=



000
FTUS45 KPUB 290123 AAA
TAFCOS
TAF AMD
KCOS 290123Z 2901/2924 04007KT P6SM SCT150
     FM291600 17008KT P6SM FEW110 SCT250
     FM291900 16013KT P6SM SCT100 SCT250=



000
FTUS45 KPUB 282322
TAFCOS
TAF
KCOS 282322Z 2900/2924 02012G22KT P6SM SCT090 BKN120
     FM290300 04005KT P6SM SCT150
     FM291600 17008KT P6SM FEW110 SCT250
     FM291900 16013KT P6SM SCT100 SCT250=



000
FTUS45 KPUB 282322
TAFPUB
TAF
KPUB 282322Z 2900/2924 03008KT P6SM SCT080 SCT120
     FM290200 05008KT P6SM BKN120
     FM290500 VRB05KT P6SM SCT200
     FM292000 14008KT P6SM SCT200=



000
FTUS45 KPUB 282322
TAFALS
TAF
KALS 282322Z 2900/2924 09008KT P6SM SCT100 SCT150
     FM290400 VRB04KT P6SM SCT200=



000
FTUS45 KPUB 282322
TAFPUB
TAF
KPUB 282322Z 2900/2924 03008KT P6SM SCT080 SCT120
     FM290200 05008KT P6SM BKN120
     FM290500 VRB05KT P6SM SCT200
     FM292000 14008KT P6SM SCT200=



000
FTUS45 KPUB 282322
TAFCOS
TAF
KCOS 282322Z 2900/2924 02012G22KT P6SM SCT090 BKN120
     FM290300 04005KT P6SM SCT150
     FM291600 17008KT P6SM FEW110 SCT250
     FM291900 16013KT P6SM SCT100 SCT250=



000
FTUS45 KPUB 282322
TAFALS
TAF
KALS 282322Z 2900/2924 09008KT P6SM SCT100 SCT150
     FM290400 VRB04KT P6SM SCT200=



000
FTUS45 KPUB 282322
TAFALS
TAF
KALS 282322Z 2900/2924 09008KT P6SM SCT100 SCT150
     FM290400 VRB04KT P6SM SCT200=



000
FTUS45 KPUB 282322
TAFALS
TAF
KALS 282322Z 2900/2924 09008KT P6SM SCT100 SCT150
     FM290400 VRB04KT P6SM SCT200=



000
FTUS45 KPUB 282322
TAFCOS
TAF
KCOS 282322Z 2900/2924 02012G22KT P6SM SCT090 BKN120
     FM290300 04005KT P6SM SCT150
     FM291600 17008KT P6SM FEW110 SCT250
     FM291900 16013KT P6SM SCT100 SCT250=



000
FTUS45 KPUB 282322
TAFCOS
TAF
KCOS 282322Z 2900/2924 02012G22KT P6SM SCT090 BKN120
     FM290300 04005KT P6SM SCT150
     FM291600 17008KT P6SM FEW110 SCT250
     FM291900 16013KT P6SM SCT100 SCT250=



000
FTUS45 KPUB 282322
TAFPUB
TAF
KPUB 282322Z 2900/2924 03008KT P6SM SCT080 SCT120
     FM290200 05008KT P6SM BKN120
     FM290500 VRB05KT P6SM SCT200
     FM292000 14008KT P6SM SCT200=



000
FTUS45 KPUB 282322
TAFPUB
TAF
KPUB 282322Z 2900/2924 03008KT P6SM SCT080 SCT120
     FM290200 05008KT P6SM BKN120
     FM290500 VRB05KT P6SM SCT200
     FM292000 14008KT P6SM SCT200=



000
FTUS45 KPUB 282102 AAC
TAFPUB
TAF AMD
KPUB 282102Z 2821/2918 05008KT P6SM SCT080 SCT120
     FM290200 05008KT P6SM BKN120
     FM290500 VRB05KT P6SM SCT200=



000
FTUS45 KPUB 282102 AAC
TAFPUB
TAF AMD
KPUB 282102Z 2821/2918 05008KT P6SM SCT080 SCT120
     FM290200 05008KT P6SM BKN120
     FM290500 VRB05KT P6SM SCT200=



000
FTUS45 KPUB 282102 AAC
TAFPUB
TAF AMD
KPUB 282102Z 2821/2918 05008KT P6SM SCT080 SCT120
     FM290200 05008KT P6SM BKN120
     FM290500 VRB05KT P6SM SCT200=



000
FTUS45 KPUB 282042 AAB
TAFPUB
TAF AMD
KPUB 282042Z 2821/2918 36012KT P6SM SCT080 BKN150
     FM290200 05008KT P6SM BKN120
     FM290500 VRB05KT P6SM SCT200=



000
FTUS45 KPUB 282042 AAB
TAFPUB
TAF AMD
KPUB 282042Z 2821/2918 36012KT P6SM SCT080 BKN150
     FM290200 05008KT P6SM BKN120
     FM290500 VRB05KT P6SM SCT200=



000
FTUS45 KPUB 282042 AAB
TAFPUB
TAF AMD
KPUB 282042Z 2821/2918 36012KT P6SM SCT080 BKN150
     FM290200 05008KT P6SM BKN120
     FM290500 VRB05KT P6SM SCT200=



000
FTUS45 KPUB 282008 AAA
TAFCOS
TAF AMD
KCOS 282008Z 2820/2918 03010G20KT P6SM SCT080 SCT120
     FM282300 02012G22KT P6SM SCT090 BKN120
     FM290300 VRB05KT P6SM SCT150
     FM291600 17008KT P6SM FEW110 SCT250=



000
FTUS45 KPUB 282008 AAA
TAFCOS
TAF AMD
KCOS 282008Z 2820/2918 03010G20KT P6SM SCT080 SCT120
     FM282300 02012G22KT P6SM SCT090 BKN120
     FM290300 VRB05KT P6SM SCT150
     FM291600 17008KT P6SM FEW110 SCT250=



000
FTUS45 KPUB 281909 AAA
TAFALS
TAF AMD
KALS 281909Z 2819/2918 36008KT P6SM SCT100 SCT200
     FM282300 09008KT P6SM SCT100 SCT150
     FM290400 VRB04KT P6SM SCT200=



000
FTUS45 KPUB 281909 AAA
TAFALS
TAF AMD
KALS 281909Z 2819/2918 36008KT P6SM SCT100 SCT200
     FM282300 09008KT P6SM SCT100 SCT150
     FM290400 VRB04KT P6SM SCT200=



000
FTUS45 KPUB 281757 CCA
TAFPUB
TAF COR
KPUB 281757Z 2818/2918 VRB06KT P6SM SCT080
     FM282100 07010KT P6SM SCT080 BKN150
     FM290200 05008KT P6SM BKN120
     FM290500 VRB05KT P6SM SCT200=



000
FTUS45 KPUB 281757 CCA
TAFPUB
TAF COR
KPUB 281757Z 2818/2918 VRB06KT P6SM SCT080
     FM282100 07010KT P6SM SCT080 BKN150
     FM290200 05008KT P6SM BKN120
     FM290500 VRB05KT P6SM SCT200=



000
FTUS45 KPUB 281757 CCA
TAFPUB
TAF COR
KPUB 281757Z 2818/2918 VRB06KT P6SM SCT080
     FM282100 07010KT P6SM SCT080 BKN150
     FM290200 05008KT P6SM BKN120
     FM290500 VRB05KT P6SM SCT200=



000
FTUS45 KPUB 281757 CCA
TAFPUB
TAF COR
KPUB 281757Z 2818/2918 VRB06KT P6SM SCT080
     FM282100 07010KT P6SM SCT080 BKN150
     FM290200 05008KT P6SM BKN120
     FM290500 VRB05KT P6SM SCT200=



000
FTUS45 KPUB 281724
TAFPUB
TAF
KPUB 281724Z 2818/2918 VRB06KT P6SM SCT100
     FM282100 07010KT P6SM SCT100 BKN150
     FM290200 05008KT P6SM BKN120
     FM290500 VRB05KT P6SM SCT200=



000
FTUS45 KPUB 281724
TAFALS
TAF
KALS 281724Z 2818/2918 32013KT P6SM SCT100 SCT250
     FM282100 01008KT P6SM SCT100 SCT200
     FM282300 09008KT P6SM SCT100 SCT150
     FM290400 VRB04KT P6SM SCT200=



000
FTUS45 KPUB 281724
TAFCOS
TAF
KCOS 281724Z 2818/2918 36015G25KT P6SM SCT090
     FM282200 02012G22KT P6SM SCT090 BKN150
     FM290300 VRB05KT P6SM SCT150
     FM291600 17008KT P6SM FEW110 SCT250=



000
FTUS45 KPUB 281724
TAFCOS
TAF
KCOS 281724Z 2818/2918 36015G25KT P6SM SCT090
     FM282200 02012G22KT P6SM SCT090 BKN150
     FM290300 VRB05KT P6SM SCT150
     FM291600 17008KT P6SM FEW110 SCT250=



000
FTUS45 KPUB 281724
TAFALS
TAF
KALS 281724Z 2818/2918 32013KT P6SM SCT100 SCT250
     FM282100 01008KT P6SM SCT100 SCT200
     FM282300 09008KT P6SM SCT100 SCT150
     FM290400 VRB04KT P6SM SCT200=



000
FTUS45 KPUB 281724
TAFPUB
TAF
KPUB 281724Z 2818/2918 VRB06KT P6SM SCT100
     FM282100 07010KT P6SM SCT100 BKN150
     FM290200 05008KT P6SM BKN120
     FM290500 VRB05KT P6SM SCT200=



000
FTUS45 KPUB 281724
TAFCOS
TAF
KCOS 281724Z 2818/2918 36015G25KT P6SM SCT090
     FM282200 02012G22KT P6SM SCT090 BKN150
     FM290300 VRB05KT P6SM SCT150
     FM291600 17008KT P6SM FEW110 SCT250=



000
FTUS45 KPUB 281724
TAFCOS
TAF
KCOS 281724Z 2818/2918 36015G25KT P6SM SCT090
     FM282200 02012G22KT P6SM SCT090 BKN150
     FM290300 VRB05KT P6SM SCT150
     FM291600 17008KT P6SM FEW110 SCT250=



000
FTUS45 KPUB 281724
TAFALS
TAF
KALS 281724Z 2818/2918 32013KT P6SM SCT100 SCT250
     FM282100 01008KT P6SM SCT100 SCT200
     FM282300 09008KT P6SM SCT100 SCT150
     FM290400 VRB04KT P6SM SCT200=



000
FTUS45 KPUB 281724
TAFPUB
TAF
KPUB 281724Z 2818/2918 VRB06KT P6SM SCT100
     FM282100 07010KT P6SM SCT100 BKN150
     FM290200 05008KT P6SM BKN120
     FM290500 VRB05KT P6SM SCT200=



000
FTUS45 KPUB 281724
TAFPUB
TAF
KPUB 281724Z 2818/2918 VRB06KT P6SM SCT100
     FM282100 07010KT P6SM SCT100 BKN150
     FM290200 05008KT P6SM BKN120
     FM290500 VRB05KT P6SM SCT200=



000
FTUS45 KPUB 281724
TAFALS
TAF
KALS 281724Z 2818/2918 32013KT P6SM SCT100 SCT250
     FM282100 01008KT P6SM SCT100 SCT200
     FM282300 09008KT P6SM SCT100 SCT150
     FM290400 VRB04KT P6SM SCT200=



000
FTUS45 KPUB 281613 AAB
TAFCOS
TAF AMD
KCOS 281613Z 2816/2912 36015KT P6SM FEW100 SCT250
     FM282000 02011KT P6SM FEW100 SCT200
     FM290100 02008KT P6SM SCT100 BKN150
     FM290600 03006KT P6SM SCT150 SCT200=



000
FTUS45 KPUB 281613 AAB
TAFCOS
TAF AMD
KCOS 281613Z 2816/2912 36015KT P6SM FEW100 SCT250
     FM282000 02011KT P6SM FEW100 SCT200
     FM290100 02008KT P6SM SCT100 BKN150
     FM290600 03006KT P6SM SCT150 SCT200=



000
FTUS45 KPUB 281613 AAB
TAFCOS
TAF AMD
KCOS 281613Z 2816/2912 36015KT P6SM FEW100 SCT250
     FM282000 02011KT P6SM FEW100 SCT200
     FM290100 02008KT P6SM SCT100 BKN150
     FM290600 03006KT P6SM SCT150 SCT200=



000
FTUS45 KPUB 281613 AAB
TAFCOS
TAF AMD
KCOS 281613Z 2816/2912 36015KT P6SM FEW100 SCT250
     FM282000 02011KT P6SM FEW100 SCT200
     FM290100 02008KT P6SM SCT100 BKN150
     FM290600 03006KT P6SM SCT150 SCT200=



000
FTUS45 KPUB 281242 AAA
TAFCOS
TAF AMD
KCOS 281242Z 2813/2912 33012KT P6SM FEW100 FEW140 SCT250
     FM281500 36012KT P6SM FEW140 SCT250
     FM282000 02011KT P6SM FEW100 SCT200
     FM290100 02008KT P6SM SCT100 BKN150
     FM290600 03006KT P6SM SCT150 SCT200=



000
FTUS45 KPUB 281242 AAA
TAFCOS
TAF AMD
KCOS 281242Z 2813/2912 33012KT P6SM FEW100 FEW140 SCT250
     FM281500 36012KT P6SM FEW140 SCT250
     FM282000 02011KT P6SM FEW100 SCT200
     FM290100 02008KT P6SM SCT100 BKN150
     FM290600 03006KT P6SM SCT150 SCT200=



000
FTUS45 KPUB 281242 AAA
TAFCOS
TAF AMD
KCOS 281242Z 2813/2912 33012KT P6SM FEW100 FEW140 SCT250
     FM281500 36012KT P6SM FEW140 SCT250
     FM282000 02011KT P6SM FEW100 SCT200
     FM290100 02008KT P6SM SCT100 BKN150
     FM290600 03006KT P6SM SCT150 SCT200=



000
FTUS45 KPUB 281242 AAA
TAFCOS
TAF AMD
KCOS 281242Z 2813/2912 33012KT P6SM FEW100 FEW140 SCT250
     FM281500 36012KT P6SM FEW140 SCT250
     FM282000 02011KT P6SM FEW100 SCT200
     FM290100 02008KT P6SM SCT100 BKN150
     FM290600 03006KT P6SM SCT150 SCT200=



000
FTUS45 KPUB 281120
TAFPUB
TAF
KPUB 281120Z 2812/2912 33006KT P6SM FEW150 SCT250
     FM281800 34009KT P6SM FEW150 SCT250
     FM282200 06008KT P6SM FEW120 SCT200
     FM290300 30007KT P6SM SCT110 SCT200=



000
FTUS45 KPUB 281120
TAFALS
TAF
KALS 281120Z 2812/2912 VRB05KT P6SM FEW140 SCT250
     FM282000 03008KT P6SM FEW120 SCT200
     FM290300 33006KT P6SM SCT100 SCT150
     FM290600 04008KT P6SM SCT120 SCT200=



000
FTUS45 KPUB 281120
TAFCOS
TAF
KCOS 281120Z 2812/2912 01010KT P6SM SCT140 SCT250
     FM281500 36012KT P6SM FEW140 SCT250
     FM282000 02011KT P6SM FEW100 SCT200
     FM290100 02008KT P6SM SCT100 BKN150
     FM290600 03006KT P6SM SCT150 SCT200=



000
FTUS45 KPUB 281120
TAFALS
TAF
KALS 281120Z 2812/2912 VRB05KT P6SM FEW140 SCT250
     FM282000 03008KT P6SM FEW120 SCT200
     FM290300 33006KT P6SM SCT100 SCT150
     FM290600 04008KT P6SM SCT120 SCT200=



000
FTUS45 KPUB 281120
TAFCOS
TAF
KCOS 281120Z 2812/2912 01010KT P6SM SCT140 SCT250
     FM281500 36012KT P6SM FEW140 SCT250
     FM282000 02011KT P6SM FEW100 SCT200
     FM290100 02008KT P6SM SCT100 BKN150
     FM290600 03006KT P6SM SCT150 SCT200=



000
FTUS45 KPUB 281120
TAFALS
TAF
KALS 281120Z 2812/2912 VRB05KT P6SM FEW140 SCT250
     FM282000 03008KT P6SM FEW120 SCT200
     FM290300 33006KT P6SM SCT100 SCT150
     FM290600 04008KT P6SM SCT120 SCT200=



000
FTUS45 KPUB 281120
TAFCOS
TAF
KCOS 281120Z 2812/2912 01010KT P6SM SCT140 SCT250
     FM281500 36012KT P6SM FEW140 SCT250
     FM282000 02011KT P6SM FEW100 SCT200
     FM290100 02008KT P6SM SCT100 BKN150
     FM290600 03006KT P6SM SCT150 SCT200=



000
FTUS45 KPUB 281120
TAFCOS
TAF
KCOS 281120Z 2812/2912 01010KT P6SM SCT140 SCT250
     FM281500 36012KT P6SM FEW140 SCT250
     FM282000 02011KT P6SM FEW100 SCT200
     FM290100 02008KT P6SM SCT100 BKN150
     FM290600 03006KT P6SM SCT150 SCT200=



000
FTUS45 KPUB 281120
TAFALS
TAF
KALS 281120Z 2812/2912 VRB05KT P6SM FEW140 SCT250
     FM282000 03008KT P6SM FEW120 SCT200
     FM290300 33006KT P6SM SCT100 SCT150
     FM290600 04008KT P6SM SCT120 SCT200=



000
FTUS45 KPUB 281120
TAFPUB
TAF
KPUB 281120Z 2812/2912 33006KT P6SM FEW150 SCT250
     FM281800 34009KT P6SM FEW150 SCT250
     FM282200 06008KT P6SM FEW120 SCT200
     FM290300 30007KT P6SM SCT110 SCT200=



000
FTUS45 KPUB 281120
TAFPUB
TAF
KPUB 281120Z 2812/2912 33006KT P6SM FEW150 SCT250
     FM281800 34009KT P6SM FEW150 SCT250
     FM282200 06008KT P6SM FEW120 SCT200
     FM290300 30007KT P6SM SCT110 SCT200=



000
FTUS45 KPUB 281120
TAFPUB
TAF
KPUB 281120Z 2812/2912 33006KT P6SM FEW150 SCT250
     FM281800 34009KT P6SM FEW150 SCT250
     FM282200 06008KT P6SM FEW120 SCT200
     FM290300 30007KT P6SM SCT110 SCT200=



000
FTUS45 KPUB 280520
TAFCOS
TAF
KCOS 280520Z 2806/2906 35007KT P6SM SCT090 BKN140
     FM281000 35007KT P6SM FEW140 SCT250
     FM281600 01008KT P6SM FEW250
     FM282000 03010KT P6SM FEW100 SCT200=



000
FTUS45 KPUB 280520
TAFALS
TAF
KALS 280520Z 2806/2906 VRB06KT P6SM SCT090 BKN140
     FM281000 VRB05KT P6SM FEW140 SCT250
     FM282000 03008KT P6SM FEW120 SCT200=



000
FTUS45 KPUB 280520
TAFPUB
TAF
KPUB 280520Z 2806/2906 30008KT P6SM SCT100 BKN150
     FM281000 33006KT P6SM FEW150 SCT250
     FM281800 34009KT P6SM FEW250
     FM282200 06008KT P6SM FEW120 SCT200=



000
FTUS45 KPUB 280520
TAFALS
TAF
KALS 280520Z 2806/2906 VRB06KT P6SM SCT090 BKN140
     FM281000 VRB05KT P6SM FEW140 SCT250
     FM282000 03008KT P6SM FEW120 SCT200=



000
FTUS45 KPUB 280520
TAFPUB
TAF
KPUB 280520Z 2806/2906 30008KT P6SM SCT100 BKN150
     FM281000 33006KT P6SM FEW150 SCT250
     FM281800 34009KT P6SM FEW250
     FM282200 06008KT P6SM FEW120 SCT200=



000
FTUS45 KPUB 280520
TAFCOS
TAF
KCOS 280520Z 2806/2906 35007KT P6SM SCT090 BKN140
     FM281000 35007KT P6SM FEW140 SCT250
     FM281600 01008KT P6SM FEW250
     FM282000 03010KT P6SM FEW100 SCT200=



000
FTUS45 KPUB 280520
TAFPUB
TAF
KPUB 280520Z 2806/2906 30008KT P6SM SCT100 BKN150
     FM281000 33006KT P6SM FEW150 SCT250
     FM281800 34009KT P6SM FEW250
     FM282200 06008KT P6SM FEW120 SCT200=



000
FTUS45 KPUB 280520
TAFALS
TAF
KALS 280520Z 2806/2906 VRB06KT P6SM SCT090 BKN140
     FM281000 VRB05KT P6SM FEW140 SCT250
     FM282000 03008KT P6SM FEW120 SCT200=



000
FTUS45 KPUB 280520
TAFPUB
TAF
KPUB 280520Z 2806/2906 30008KT P6SM SCT100 BKN150
     FM281000 33006KT P6SM FEW150 SCT250
     FM281800 34009KT P6SM FEW250
     FM282200 06008KT P6SM FEW120 SCT200=



000
FTUS45 KPUB 280520
TAFCOS
TAF
KCOS 280520Z 2806/2906 35007KT P6SM SCT090 BKN140
     FM281000 35007KT P6SM FEW140 SCT250
     FM281600 01008KT P6SM FEW250
     FM282000 03010KT P6SM FEW100 SCT200=



000
FTUS45 KPUB 280520
TAFALS
TAF
KALS 280520Z 2806/2906 VRB06KT P6SM SCT090 BKN140
     FM281000 VRB05KT P6SM FEW140 SCT250
     FM282000 03008KT P6SM FEW120 SCT200=



000
FTUS45 KPUB 280520
TAFCOS
TAF
KCOS 280520Z 2806/2906 35007KT P6SM SCT090 BKN140
     FM281000 35007KT P6SM FEW140 SCT250
     FM281600 01008KT P6SM FEW250
     FM282000 03010KT P6SM FEW100 SCT200=



000
FTUS45 KPUB 280103 AAB
TAFPUB
TAF AMD
KPUB 280103Z 2801/2824 36012KT P6SM VCTS SCT090CB BKN150
      TEMPO 2801/2803 36022G32KT -TSRA BKN090CB
     FM280300 35009KT P6SM BKN120
     FM280800 30006KT P6SM SCT120 SCT200
     FM281600 VRB06KT P6SM SCT200=



000
FTUS45 KPUB 280103 AAB
TAFPUB
TAF AMD
KPUB 280103Z 2801/2824 36012KT P6SM VCTS SCT090CB BKN150
      TEMPO 2801/2803 36022G32KT -TSRA BKN090CB
     FM280300 35009KT P6SM BKN120
     FM280800 30006KT P6SM SCT120 SCT200
     FM281600 VRB06KT P6SM SCT200=



000
FTUS45 KPUB 280103 AAB
TAFPUB
TAF AMD
KPUB 280103Z 2801/2824 36012KT P6SM VCTS SCT090CB BKN150
      TEMPO 2801/2803 36022G32KT -TSRA BKN090CB
     FM280300 35009KT P6SM BKN120
     FM280800 30006KT P6SM SCT120 SCT200
     FM281600 VRB06KT P6SM SCT200=



000
FTUS45 KPUB 280103 AAB
TAFPUB
TAF AMD
KPUB 280103Z 2801/2824 36012KT P6SM VCTS SCT090CB BKN150
      TEMPO 2801/2803 36022G32KT -TSRA BKN090CB
     FM280300 35009KT P6SM BKN120
     FM280800 30006KT P6SM SCT120 SCT200
     FM281600 VRB06KT P6SM SCT200=



000
FTUS45 KPUB 280051 AAA
TAFPUB
TAF AMD
KPUB 280051Z 2801/2824 03008KT P6SM VCTS SCT090CB BKN150
      TEMPO 2801/2802 36015G25KT BKN090CB
     FM280200 35009KT P6SM BKN120
     FM280800 30006KT P6SM SCT120 SCT200
     FM281600 VRB06KT P6SM SCT200=



000
FTUS45 KPUB 280051 AAA
TAFPUB
TAF AMD
KPUB 280051Z 2801/2824 03008KT P6SM VCTS SCT090CB BKN150
      TEMPO 2801/2802 36015G25KT BKN090CB
     FM280200 35009KT P6SM BKN120
     FM280800 30006KT P6SM SCT120 SCT200
     FM281600 VRB06KT P6SM SCT200=



000
FTUS45 KPUB 272321
TAFPUB
TAF
KPUB 272321Z 2800/2824 03008KT P6SM VCTS SCT090CB BKN150
      TEMPO 2800/2801 VRB20G30KT BKN090CB
     FM280200 33009KT P6SM BKN120
     FM280800 30006KT P6SM SCT120 SCT200
     FM281600 VRB06KT P6SM SCT200=



000
FTUS45 KPUB 272321
TAFALS
TAF
KALS 272321Z 2800/2824 33008KT P6SM VCTS SCT090CB BKN140
      TEMPO 2800/2801 VRB20G30KT
     FM280200 35008KT P6SM BKN120
     FM280600 VRB06KT P6SM SCT120 SCT200=



000
FTUS45 KPUB 272321
TAFCOS
TAF
KCOS 272321Z 2800/2824 33010KT P6SM VCTS SCT080CB BKN140
      TEMPO 2800/2801 VRB20G30KT -TSRA BKN080CB
     FM280200 35009KT P6SM BKN120
     FM280800 35007KT P6SM SCT120 SCT200
     FM281600 01010KT P6SM SCT200=



000
FTUS45 KPUB 272321
TAFPUB
TAF
KPUB 272321Z 2800/2824 03008KT P6SM VCTS SCT090CB BKN150
      TEMPO 2800/2801 VRB20G30KT BKN090CB
     FM280200 33009KT P6SM BKN120
     FM280800 30006KT P6SM SCT120 SCT200
     FM281600 VRB06KT P6SM SCT200=



000
FTUS45 KPUB 272321
TAFCOS
TAF
KCOS 272321Z 2800/2824 33010KT P6SM VCTS SCT080CB BKN140
      TEMPO 2800/2801 VRB20G30KT -TSRA BKN080CB
     FM280200 35009KT P6SM BKN120
     FM280800 35007KT P6SM SCT120 SCT200
     FM281600 01010KT P6SM SCT200=



000
FTUS45 KPUB 272321
TAFALS
TAF
KALS 272321Z 2800/2824 33008KT P6SM VCTS SCT090CB BKN140
      TEMPO 2800/2801 VRB20G30KT
     FM280200 35008KT P6SM BKN120
     FM280600 VRB06KT P6SM SCT120 SCT200=



000
FTUS45 KPUB 272321
TAFPUB
TAF
KPUB 272321Z 2800/2824 03008KT P6SM VCTS SCT090CB BKN150
      TEMPO 2800/2801 VRB20G30KT BKN090CB
     FM280200 33009KT P6SM BKN120
     FM280800 30006KT P6SM SCT120 SCT200
     FM281600 VRB06KT P6SM SCT200=



000
FTUS45 KPUB 272321
TAFCOS
TAF
KCOS 272321Z 2800/2824 33010KT P6SM VCTS SCT080CB BKN140
      TEMPO 2800/2801 VRB20G30KT -TSRA BKN080CB
     FM280200 35009KT P6SM BKN120
     FM280800 35007KT P6SM SCT120 SCT200
     FM281600 01010KT P6SM SCT200=



000
FTUS45 KPUB 272321
TAFALS
TAF
KALS 272321Z 2800/2824 33008KT P6SM VCTS SCT090CB BKN140
      TEMPO 2800/2801 VRB20G30KT
     FM280200 35008KT P6SM BKN120
     FM280600 VRB06KT P6SM SCT120 SCT200=



000
FTUS45 KPUB 272321
TAFCOS
TAF
KCOS 272321Z 2800/2824 33010KT P6SM VCTS SCT080CB BKN140
      TEMPO 2800/2801 VRB20G30KT -TSRA BKN080CB
     FM280200 35009KT P6SM BKN120
     FM280800 35007KT P6SM SCT120 SCT200
     FM281600 01010KT P6SM SCT200=



000
FTUS45 KPUB 272321
TAFALS
TAF
KALS 272321Z 2800/2824 33008KT P6SM VCTS SCT090CB BKN140
      TEMPO 2800/2801 VRB20G30KT
     FM280200 35008KT P6SM BKN120
     FM280600 VRB06KT P6SM SCT120 SCT200=



000
FTUS45 KPUB 272321
TAFPUB
TAF
KPUB 272321Z 2800/2824 03008KT P6SM VCTS SCT090CB BKN150
      TEMPO 2800/2801 VRB20G30KT BKN090CB
     FM280200 33009KT P6SM BKN120
     FM280800 30006KT P6SM SCT120 SCT200
     FM281600 VRB06KT P6SM SCT200=



000
FTUS45 KPUB 272158 AAD
TAFPUB
TAF AMD
KPUB 272158Z 2722/2818 06009KT P6SM VCTS BKN100CB BKN150
      TEMPO 2722/2801 VRB20G35KT -TSRA BKN060CB
     FM280200 33009KT P6SM BKN100
     FM280800 VRB05KT P6SM SCT100 SCT200=



000
FTUS45 KPUB 272158 AAD
TAFPUB
TAF AMD
KPUB 272158Z 2722/2818 06009KT P6SM VCTS BKN100CB BKN150
      TEMPO 2722/2801 VRB20G35KT -TSRA BKN060CB
     FM280200 33009KT P6SM BKN100
     FM280800 VRB05KT P6SM SCT100 SCT200=



000
FTUS45 KPUB 272054 AAC
TAFPUB
TAF AMD
KPUB 272054Z 2721/2818 36012G22KT P6SM VCTS BKN100CB BKN150
      TEMPO 2721/2801 VRB20G35KT -TSRA BKN060CB
     FM280200 33009KT P6SM BKN100
     FM280800 VRB05KT P6SM SCT100 SCT200=



000
FTUS45 KPUB 272054 AAC
TAFPUB
TAF AMD
KPUB 272054Z 2721/2818 36012G22KT P6SM VCTS BKN100CB BKN150
      TEMPO 2721/2801 VRB20G35KT -TSRA BKN060CB
     FM280200 33009KT P6SM BKN100
     FM280800 VRB05KT P6SM SCT100 SCT200=



000
FTUS45 KPUB 272054 AAC
TAFPUB
TAF AMD
KPUB 272054Z 2721/2818 36012G22KT P6SM VCTS BKN100CB BKN150
      TEMPO 2721/2801 VRB20G35KT -TSRA BKN060CB
     FM280200 33009KT P6SM BKN100
     FM280800 VRB05KT P6SM SCT100 SCT200=



000
FTUS45 KPUB 272054 AAC
TAFPUB
TAF AMD
KPUB 272054Z 2721/2818 36012G22KT P6SM VCTS BKN100CB BKN150
      TEMPO 2721/2801 VRB20G35KT -TSRA BKN060CB
     FM280200 33009KT P6SM BKN100
     FM280800 VRB05KT P6SM SCT100 SCT200=



000
FTUS45 KPUB 272029 AAB
TAFPUB
TAF AMD
KPUB 272029Z 2720/2818 27012G22KT P6SM VCTS BKN100CB BKN150
      TEMPO 2721/2801 VRB20G35KT -TSRA BKN060CB
     FM280200 33009KT P6SM BKN100
     FM280800 VRB05KT P6SM SCT100 SCT200=



000
FTUS45 KPUB 272029 AAB
TAFPUB
TAF AMD
KPUB 272029Z 2720/2818 27012G22KT P6SM VCTS BKN100CB BKN150
      TEMPO 2721/2801 VRB20G35KT -TSRA BKN060CB
     FM280200 33009KT P6SM BKN100
     FM280800 VRB05KT P6SM SCT100 SCT200=



000
FTUS45 KPUB 271843 AAA
TAFPUB
TAF AMD
KPUB 271843Z 2719/2818 31012G22KT P6SM SCT120 SCT200
     FM272100 33012G22KT P6SM VCTS SCT080CB BKN120
      TEMPO 2722/2801 VRB20G35KT -TSRA BKN060CB
     FM280200 33009KT P6SM BKN100
     FM280800 VRB05KT P6SM SCT100 SCT200=



000
FTUS45 KPUB 271843 AAA
TAFPUB
TAF AMD
KPUB 271843Z 2719/2818 31012G22KT P6SM SCT120 SCT200
     FM272100 33012G22KT P6SM VCTS SCT080CB BKN120
      TEMPO 2722/2801 VRB20G35KT -TSRA BKN060CB
     FM280200 33009KT P6SM BKN100
     FM280800 VRB05KT P6SM SCT100 SCT200=



000
FTUS45 KPUB 271843 AAA
TAFPUB
TAF AMD
KPUB 271843Z 2719/2818 31012G22KT P6SM SCT120 SCT200
     FM272100 33012G22KT P6SM VCTS SCT080CB BKN120
      TEMPO 2722/2801 VRB20G35KT -TSRA BKN060CB
     FM280200 33009KT P6SM BKN100
     FM280800 VRB05KT P6SM SCT100 SCT200=



000
FTUS45 KPUB 271734
TAFPUB
TAF
KPUB 271734Z 2718/2818 28010G20KT P6SM BKN120
     FM272000 32012G22KT P6SM VCTS SCT080CB BKN120
      TEMPO 2722/2724 VRB20G35KT -TSRA BKN060CB
     FM280200 33009KT P6SM BKN100
     FM280800 VRB05KT P6SM SCT100 SCT200=



000
FTUS45 KPUB 271734
TAFCOS
TAF
KCOS 271734Z 2718/2818 24007KT P6SM SCT070 BKN120
     FM271900 33010KT P6SM VCTS SCT070CB BKN120
      TEMPO 2719/2723 VRB20G35KT 5SM -TSRA BKN050CB
     FM280100 35010KT P6SM VCTS SCT060CB BKN100
     FM280500 01006KT P6SM SCT080 BKN150
     FM281100 34010KT P6SM SCT150=



000
FTUS45 KPUB 271734
TAFCOS
TAF
KCOS 271734Z 2718/2818 24007KT P6SM SCT070 BKN120
     FM271900 33010KT P6SM VCTS SCT070CB BKN120
      TEMPO 2719/2723 VRB20G35KT 5SM -TSRA BKN050CB
     FM280100 35010KT P6SM VCTS SCT060CB BKN100
     FM280500 01006KT P6SM SCT080 BKN150
     FM281100 34010KT P6SM SCT150=



000
FTUS45 KPUB 271734
TAFALS
TAF
KALS 271734Z 2718/2818 18008KT P6SM SCT100 BKN140
     FM272000 30012KT P6SM VCTS SCT060CB BKN140
      TEMPO 2720/2724 VRB20G35KT -TSRA BKN050CB
     FM280100 03008KT P6SM SCT060 BKN120
     FM280500 VRB05KT P6SM SCT120 SCT200=



000
FTUS45 KPUB 271734
TAFALS
TAF
KALS 271734Z 2718/2818 18008KT P6SM SCT100 BKN140
     FM272000 30012KT P6SM VCTS SCT060CB BKN140
      TEMPO 2720/2724 VRB20G35KT -TSRA BKN050CB
     FM280100 03008KT P6SM SCT060 BKN120
     FM280500 VRB05KT P6SM SCT120 SCT200=



000
FTUS45 KPUB 271734
TAFCOS
TAF
KCOS 271734Z 2718/2818 24007KT P6SM SCT070 BKN120
     FM271900 33010KT P6SM VCTS SCT070CB BKN120
      TEMPO 2719/2723 VRB20G35KT 5SM -TSRA BKN050CB
     FM280100 35010KT P6SM VCTS SCT060CB BKN100
     FM280500 01006KT P6SM SCT080 BKN150
     FM281100 34010KT P6SM SCT150=



000
FTUS45 KPUB 271734
TAFPUB
TAF
KPUB 271734Z 2718/2818 28010G20KT P6SM BKN120
     FM272000 32012G22KT P6SM VCTS SCT080CB BKN120
      TEMPO 2722/2724 VRB20G35KT -TSRA BKN060CB
     FM280200 33009KT P6SM BKN100
     FM280800 VRB05KT P6SM SCT100 SCT200=



000
FTUS45 KPUB 271734
TAFPUB
TAF
KPUB 271734Z 2718/2818 28010G20KT P6SM BKN120
     FM272000 32012G22KT P6SM VCTS SCT080CB BKN120
      TEMPO 2722/2724 VRB20G35KT -TSRA BKN060CB
     FM280200 33009KT P6SM BKN100
     FM280800 VRB05KT P6SM SCT100 SCT200=



000
FTUS45 KPUB 271734
TAFALS
TAF
KALS 271734Z 2718/2818 18008KT P6SM SCT100 BKN140
     FM272000 30012KT P6SM VCTS SCT060CB BKN140
      TEMPO 2720/2724 VRB20G35KT -TSRA BKN050CB
     FM280100 03008KT P6SM SCT060 BKN120
     FM280500 VRB05KT P6SM SCT120 SCT200=



000
FTUS45 KPUB 271734
TAFCOS
TAF
KCOS 271734Z 2718/2818 24007KT P6SM SCT070 BKN120
     FM271900 33010KT P6SM VCTS SCT070CB BKN120
      TEMPO 2719/2723 VRB20G35KT 5SM -TSRA BKN050CB
     FM280100 35010KT P6SM VCTS SCT060CB BKN100
     FM280500 01006KT P6SM SCT080 BKN150
     FM281100 34010KT P6SM SCT150=



000
FTUS45 KPUB 271734
TAFALS
TAF
KALS 271734Z 2718/2818 18008KT P6SM SCT100 BKN140
     FM272000 30012KT P6SM VCTS SCT060CB BKN140
      TEMPO 2720/2724 VRB20G35KT -TSRA BKN050CB
     FM280100 03008KT P6SM SCT060 BKN120
     FM280500 VRB05KT P6SM SCT120 SCT200=



000
FTUS45 KPUB 271734
TAFPUB
TAF
KPUB 271734Z 2718/2818 28010G20KT P6SM BKN120
     FM272000 32012G22KT P6SM VCTS SCT080CB BKN120
      TEMPO 2722/2724 VRB20G35KT -TSRA BKN060CB
     FM280200 33009KT P6SM BKN100
     FM280800 VRB05KT P6SM SCT100 SCT200=



000
FTUS45 KPUB 271528 AAD
TAFPUB
TAF AMD
KPUB 271528Z 2715/2812 29011G21KT P6SM BKN110
     FM272000 25012KT P6SM VCTS SCT100CB BKN150
     FM272300 03015KT P6SM VCTS BKN100CB
     FM280300 05012KT P6SM BKN100=



000
FTUS45 KPUB 271528 AAD
TAFPUB
TAF AMD
KPUB 271528Z 2715/2812 29011G21KT P6SM BKN110
     FM272000 25012KT P6SM VCTS SCT100CB BKN150
     FM272300 03015KT P6SM VCTS BKN100CB
     FM280300 05012KT P6SM BKN100=



000
FTUS45 KPUB 271418 AAC
TAFALS
TAF AMD
KALS 271418Z 2714/2812 VRB03KT P6SM BKN002 OVC100
      TEMPO 2714/2715 5SM BR SCT002 OVC100
     FM271500 19009KT P6SM SCT030 BKN100
     FM271800 24010KT P6SM VCTS SCT070CB BKN150
     FM272100 31010KT P6SM VCTS SCT070CB BKN150
     FM280200 35006KT P6SM SCT100 SCT180=



000
FTUS45 KPUB 271418 AAC
TAFALS
TAF AMD
KALS 271418Z 2714/2812 VRB03KT P6SM BKN002 OVC100
      TEMPO 2714/2715 5SM BR SCT002 OVC100
     FM271500 19009KT P6SM SCT030 BKN100
     FM271800 24010KT P6SM VCTS SCT070CB BKN150
     FM272100 31010KT P6SM VCTS SCT070CB BKN150
     FM280200 35006KT P6SM SCT100 SCT180=



000
FTUS45 KPUB 271418 AAC
TAFALS
TAF AMD
KALS 271418Z 2714/2812 VRB03KT P6SM BKN002 OVC100
      TEMPO 2714/2715 5SM BR SCT002 OVC100
     FM271500 19009KT P6SM SCT030 BKN100
     FM271800 24010KT P6SM VCTS SCT070CB BKN150
     FM272100 31010KT P6SM VCTS SCT070CB BKN150
     FM280200 35006KT P6SM SCT100 SCT180=



000
FTUS45 KPUB 271418 AAC
TAFALS
TAF AMD
KALS 271418Z 2714/2812 VRB03KT P6SM BKN002 OVC100
      TEMPO 2714/2715 5SM BR SCT002 OVC100
     FM271500 19009KT P6SM SCT030 BKN100
     FM271800 24010KT P6SM VCTS SCT070CB BKN150
     FM272100 31010KT P6SM VCTS SCT070CB BKN150
     FM280200 35006KT P6SM SCT100 SCT180=



000
FTUS45 KPUB 271344 AAB
TAFALS
TAF AMD
KALS 271344Z 2714/2812 16004KT 1/4SM FG VV001
     FM271500 19009KT P6SM SCT070 BKN130
     FM271800 24010KT P6SM VCTS SCT070CB BKN150
     FM272100 31010KT P6SM VCTS SCT070CB BKN150
     FM280200 35006KT P6SM SCT100 SCT180=



000
FTUS45 KPUB 271344 AAB
TAFALS
TAF AMD
KALS 271344Z 2714/2812 16004KT 1/4SM FG VV001
     FM271500 19009KT P6SM SCT070 BKN130
     FM271800 24010KT P6SM VCTS SCT070CB BKN150
     FM272100 31010KT P6SM VCTS SCT070CB BKN150
     FM280200 35006KT P6SM SCT100 SCT180=



000
FTUS45 KPUB 271344 AAB
TAFALS
TAF AMD
KALS 271344Z 2714/2812 16004KT 1/4SM FG VV001
     FM271500 19009KT P6SM SCT070 BKN130
     FM271800 24010KT P6SM VCTS SCT070CB BKN150
     FM272100 31010KT P6SM VCTS SCT070CB BKN150
     FM280200 35006KT P6SM SCT100 SCT180=



000
FTUS45 KPUB 271255 AAA
TAFALS
TAF AMD
KALS 271255Z 2713/2812 16004KT 3/4SM BR VV001
     FM271500 19009KT P6SM SCT070 BKN130
     FM271800 24010KT P6SM VCTS SCT070CB BKN150
     FM272100 31010KT P6SM VCTS SCT070CB BKN150
     FM280200 35006KT P6SM SCT100 SCT180=



000
FTUS45 KPUB 271255 AAA
TAFALS
TAF AMD
KALS 271255Z 2713/2812 16004KT 3/4SM BR VV001
     FM271500 19009KT P6SM SCT070 BKN130
     FM271800 24010KT P6SM VCTS SCT070CB BKN150
     FM272100 31010KT P6SM VCTS SCT070CB BKN150
     FM280200 35006KT P6SM SCT100 SCT180=



000
FTUS45 KPUB 271255 AAA
TAFALS
TAF AMD
KALS 271255Z 2713/2812 16004KT 3/4SM BR VV001
     FM271500 19009KT P6SM SCT070 BKN130
     FM271800 24010KT P6SM VCTS SCT070CB BKN150
     FM272100 31010KT P6SM VCTS SCT070CB BKN150
     FM280200 35006KT P6SM SCT100 SCT180=



000
FTUS45 KPUB 271255 AAA
TAFALS
TAF AMD
KALS 271255Z 2713/2812 16004KT 3/4SM BR VV001
     FM271500 19009KT P6SM SCT070 BKN130
     FM271800 24010KT P6SM VCTS SCT070CB BKN150
     FM272100 31010KT P6SM VCTS SCT070CB BKN150
     FM280200 35006KT P6SM SCT100 SCT180=



000
FTUS45 KPUB 271234 AAA
TAFCOS
TAF AMD
KCOS 271234Z 2713/2812 36009KT P6SM -SHRA SCT050 SCT070 BKN100
     FM271600 35010KT P6SM SCT070 BKN100
     FM271800 36010KT P6SM VCTS SCT070CB BKN100
     FM280300 01008KT P6SM SCT070 BKN100=



000
FTUS45 KPUB 271234 AAA
TAFCOS
TAF AMD
KCOS 271234Z 2713/2812 36009KT P6SM -SHRA SCT050 SCT070 BKN100
     FM271600 35010KT P6SM SCT070 BKN100
     FM271800 36010KT P6SM VCTS SCT070CB BKN100
     FM280300 01008KT P6SM SCT070 BKN100=



000
FTUS45 KPUB 271234 AAA
TAFCOS
TAF AMD
KCOS 271234Z 2713/2812 36009KT P6SM -SHRA SCT050 SCT070 BKN100
     FM271600 35010KT P6SM SCT070 BKN100
     FM271800 36010KT P6SM VCTS SCT070CB BKN100
     FM280300 01008KT P6SM SCT070 BKN100=



000
FTUS45 KPUB 271234 AAA
TAFCOS
TAF AMD
KCOS 271234Z 2713/2812 36009KT P6SM -SHRA SCT050 SCT070 BKN100
     FM271600 35010KT P6SM SCT070 BKN100
     FM271800 36010KT P6SM VCTS SCT070CB BKN100
     FM280300 01008KT P6SM SCT070 BKN100=



000
FTUS45 KPUB 271120
TAFALS
TAF
KALS 271120Z 2712/2812 18003KT P6SM FEW110 SCT130 BKN200
     FM271500 19009KT P6SM SCT070 BKN130
     FM271800 24010KT P6SM VCTS SCT070CB BKN150
     FM272100 31010KT P6SM VCTS SCT070CB BKN150
     FM280200 35006KT P6SM SCT100 SCT180=



000
FTUS45 KPUB 271120
TAFCOS
TAF
KCOS 271120Z 2712/2812 36006KT P6SM SCT120 BKN250
     FM271600 35010KT P6SM SCT070 BKN100
     FM271800 36010KT P6SM VCTS SCT070CB BKN100
     FM280300 01008KT P6SM SCT070 BKN100=



000
FTUS45 KPUB 271120
TAFALS
TAF
KALS 271120Z 2712/2812 18003KT P6SM FEW110 SCT130 BKN200
     FM271500 19009KT P6SM SCT070 BKN130
     FM271800 24010KT P6SM VCTS SCT070CB BKN150
     FM272100 31010KT P6SM VCTS SCT070CB BKN150
     FM280200 35006KT P6SM SCT100 SCT180=



000
FTUS45 KPUB 271120
TAFALS
TAF
KALS 271120Z 2712/2812 18003KT P6SM FEW110 SCT130 BKN200
     FM271500 19009KT P6SM SCT070 BKN130
     FM271800 24010KT P6SM VCTS SCT070CB BKN150
     FM272100 31010KT P6SM VCTS SCT070CB BKN150
     FM280200 35006KT P6SM SCT100 SCT180=



000
FTUS45 KPUB 271120
TAFPUB
TAF
KPUB 271120Z 2712/2812 28007KT P6SM SCT130 BKN250
     FM271700 25012KT P6SM SCT120 BKN150
     FM272000 25012KT P6SM VCTS SCT100CB BKN150
     FM272300 03015KT P6SM VCTS BKN100CB
     FM280300 05012KT P6SM BKN100=



000
FTUS45 KPUB 271120
TAFCOS
TAF
KCOS 271120Z 2712/2812 36006KT P6SM SCT120 BKN250
     FM271600 35010KT P6SM SCT070 BKN100
     FM271800 36010KT P6SM VCTS SCT070CB BKN100
     FM280300 01008KT P6SM SCT070 BKN100=



000
FTUS45 KPUB 271120
TAFCOS
TAF
KCOS 271120Z 2712/2812 36006KT P6SM SCT120 BKN250
     FM271600 35010KT P6SM SCT070 BKN100
     FM271800 36010KT P6SM VCTS SCT070CB BKN100
     FM280300 01008KT P6SM SCT070 BKN100=



000
FTUS45 KPUB 271120
TAFPUB
TAF
KPUB 271120Z 2712/2812 28007KT P6SM SCT130 BKN250
     FM271700 25012KT P6SM SCT120 BKN150
     FM272000 25012KT P6SM VCTS SCT100CB BKN150
     FM272300 03015KT P6SM VCTS BKN100CB
     FM280300 05012KT P6SM BKN100=



000
FTUS45 KPUB 271120
TAFPUB
TAF
KPUB 271120Z 2712/2812 28007KT P6SM SCT130 BKN250
     FM271700 25012KT P6SM SCT120 BKN150
     FM272000 25012KT P6SM VCTS SCT100CB BKN150
     FM272300 03015KT P6SM VCTS BKN100CB
     FM280300 05012KT P6SM BKN100=



000
FTUS45 KPUB 271120
TAFCOS
TAF
KCOS 271120Z 2712/2812 36006KT P6SM SCT120 BKN250
     FM271600 35010KT P6SM SCT070 BKN100
     FM271800 36010KT P6SM VCTS SCT070CB BKN100
     FM280300 01008KT P6SM SCT070 BKN100=



000
FTUS45 KPUB 271120
TAFALS
TAF
KALS 271120Z 2712/2812 18003KT P6SM FEW110 SCT130 BKN200
     FM271500 19009KT P6SM SCT070 BKN130
     FM271800 24010KT P6SM VCTS SCT070CB BKN150
     FM272100 31010KT P6SM VCTS SCT070CB BKN150
     FM280200 35006KT P6SM SCT100 SCT180=



000
FTUS45 KPUB 271120
TAFPUB
TAF
KPUB 271120Z 2712/2812 28007KT P6SM SCT130 BKN250
     FM271700 25012KT P6SM SCT120 BKN150
     FM272000 25012KT P6SM VCTS SCT100CB BKN150
     FM272300 03015KT P6SM VCTS BKN100CB
     FM280300 05012KT P6SM BKN100=



000
FTUS45 KPUB 270544 AAA
TAFALS
TAF AMD
KALS 270544Z 2706/2806 VRB06KT P6SM VCSH SCT050 BKN080
     FM270800 VRB06KT P6SM SCT060 BKN130
     FM271500 19009KT P6SM SCT070 BKN130
     FM271800 24010KT P6SM VCTS SCT070CB BKN150
     FM272100 31010KT P6SM VCTS SCT070CB BKN150
     FM280200 35008KT P6SM SCT100 SCT180=



000
FTUS45 KPUB 270544 AAA
TAFALS
TAF AMD
KALS 270544Z 2706/2806 VRB06KT P6SM VCSH SCT050 BKN080
     FM270800 VRB06KT P6SM SCT060 BKN130
     FM271500 19009KT P6SM SCT070 BKN130
     FM271800 24010KT P6SM VCTS SCT070CB BKN150
     FM272100 31010KT P6SM VCTS SCT070CB BKN150
     FM280200 35008KT P6SM SCT100 SCT180=



000
FTUS45 KPUB 270544 AAA
TAFALS
TAF AMD
KALS 270544Z 2706/2806 VRB06KT P6SM VCSH SCT050 BKN080
     FM270800 VRB06KT P6SM SCT060 BKN130
     FM271500 19009KT P6SM SCT070 BKN130
     FM271800 24010KT P6SM VCTS SCT070CB BKN150
     FM272100 31010KT P6SM VCTS SCT070CB BKN150
     FM280200 35008KT P6SM SCT100 SCT180=



000
FTUS45 KPUB 270525
TAFALS
TAF
KALS 270525Z 2706/2806 18009KT P6SM SCT080 BKN150
     FM271500 19009KT P6SM SCT070 BKN130
     FM271800 24010KT P6SM VCTS SCT070CB BKN150
     FM272100 31010KT P6SM VCTS SCT070CB BKN150
     FM280200 35008KT P6SM SCT100 SCT180=



000
FTUS45 KPUB 270525
TAFPUB
TAF
KPUB 270525Z 2706/2806 27006KT P6SM SCT120 BKN150
     FM271700 25012KT P6SM SCT120 BKN150
     FM272000 25012KT P6SM VCTS SCT100CB BKN150
     FM272300 03015KT P6SM VCTS BKN100CB
     FM280300 05012KT P6SM BKN100=



000
FTUS45 KPUB 270525
TAFCOS
TAF
KCOS 270525Z 2706/2806 15007KT P6SM BKN100
     FM270800 02007KT P6SM BKN100
     FM271600 35010KT P6SM SCT070 BKN100
     FM271800 36010KT P6SM VCTS SCT070CB BKN100
     FM280300 01008KT P6SM SCT070 BKN100=



000
FTUS45 KPUB 270525
TAFCOS
TAF
KCOS 270525Z 2706/2806 15007KT P6SM BKN100
     FM270800 02007KT P6SM BKN100
     FM271600 35010KT P6SM SCT070 BKN100
     FM271800 36010KT P6SM VCTS SCT070CB BKN100
     FM280300 01008KT P6SM SCT070 BKN100=



000
FTUS45 KPUB 270525
TAFALS
TAF
KALS 270525Z 2706/2806 18009KT P6SM SCT080 BKN150
     FM271500 19009KT P6SM SCT070 BKN130
     FM271800 24010KT P6SM VCTS SCT070CB BKN150
     FM272100 31010KT P6SM VCTS SCT070CB BKN150
     FM280200 35008KT P6SM SCT100 SCT180=



000
FTUS45 KPUB 270525
TAFPUB
TAF
KPUB 270525Z 2706/2806 27006KT P6SM SCT120 BKN150
     FM271700 25012KT P6SM SCT120 BKN150
     FM272000 25012KT P6SM VCTS SCT100CB BKN150
     FM272300 03015KT P6SM VCTS BKN100CB
     FM280300 05012KT P6SM BKN100=



000
FTUS45 KPUB 270525
TAFCOS
TAF
KCOS 270525Z 2706/2806 15007KT P6SM BKN100
     FM270800 02007KT P6SM BKN100
     FM271600 35010KT P6SM SCT070 BKN100
     FM271800 36010KT P6SM VCTS SCT070CB BKN100
     FM280300 01008KT P6SM SCT070 BKN100=



000
FTUS45 KPUB 270525
TAFPUB
TAF
KPUB 270525Z 2706/2806 27006KT P6SM SCT120 BKN150
     FM271700 25012KT P6SM SCT120 BKN150
     FM272000 25012KT P6SM VCTS SCT100CB BKN150
     FM272300 03015KT P6SM VCTS BKN100CB
     FM280300 05012KT P6SM BKN100=



000
FTUS45 KPUB 270525
TAFALS
TAF
KALS 270525Z 2706/2806 18009KT P6SM SCT080 BKN150
     FM271500 19009KT P6SM SCT070 BKN130
     FM271800 24010KT P6SM VCTS SCT070CB BKN150
     FM272100 31010KT P6SM VCTS SCT070CB BKN150
     FM280200 35008KT P6SM SCT100 SCT180=



000
FTUS45 KPUB 270525
TAFPUB
TAF
KPUB 270525Z 2706/2806 27006KT P6SM SCT120 BKN150
     FM271700 25012KT P6SM SCT120 BKN150
     FM272000 25012KT P6SM VCTS SCT100CB BKN150
     FM272300 03015KT P6SM VCTS BKN100CB
     FM280300 05012KT P6SM BKN100=



000
FTUS45 KPUB 270525
TAFCOS
TAF
KCOS 270525Z 2706/2806 15007KT P6SM BKN100
     FM270800 02007KT P6SM BKN100
     FM271600 35010KT P6SM SCT070 BKN100
     FM271800 36010KT P6SM VCTS SCT070CB BKN100
     FM280300 01008KT P6SM SCT070 BKN100=



000
FTUS45 KPUB 270525
TAFALS
TAF
KALS 270525Z 2706/2806 18009KT P6SM SCT080 BKN150
     FM271500 19009KT P6SM SCT070 BKN130
     FM271800 24010KT P6SM VCTS SCT070CB BKN150
     FM272100 31010KT P6SM VCTS SCT070CB BKN150
     FM280200 35008KT P6SM SCT100 SCT180=



000
FTUS45 KPUB 270157 AAB
TAFPUB
TAF AMD
KPUB 270157Z 2702/2724 25008G18KT P6SM FEW100 SCT120 BKN170
     FM270300 22008KT P6SM SCT120 BKN170
     FM270600 VRB06KT P6SM SCT120 BKN150
     FM271800 34010KT P6SM SCT090 BKN120=



000
FTUS45 KPUB 270157 AAB
TAFPUB
TAF AMD
KPUB 270157Z 2702/2724 25008G18KT P6SM FEW100 SCT120 BKN170
     FM270300 22008KT P6SM SCT120 BKN170
     FM270600 VRB06KT P6SM SCT120 BKN150
     FM271800 34010KT P6SM SCT090 BKN120=



000
FTUS45 KPUB 270157 AAB
TAFPUB
TAF AMD
KPUB 270157Z 2702/2724 25008G18KT P6SM FEW100 SCT120 BKN170
     FM270300 22008KT P6SM SCT120 BKN170
     FM270600 VRB06KT P6SM SCT120 BKN150
     FM271800 34010KT P6SM SCT090 BKN120=



000
FTUS45 KPUB 270157 AAB
TAFPUB
TAF AMD
KPUB 270157Z 2702/2724 25008G18KT P6SM FEW100 SCT120 BKN170
     FM270300 22008KT P6SM SCT120 BKN170
     FM270600 VRB06KT P6SM SCT120 BKN150
     FM271800 34010KT P6SM SCT090 BKN120=



000
FTUS45 KPUB 270109 AAA
TAFCOS
TAF AMD
KCOS 270109Z 2701/2724 17010G20KT P6SM SCT100 BKN150
     FM270200 21012G22KT P6SM BKN100
     FM270600 VRB06KT P6SM BKN100
     FM271600 33010KT P6SM SCT070 BKN100=



000
FTUS45 KPUB 270109 AAA
TAFCOS
TAF AMD
KCOS 270109Z 2701/2724 17010G20KT P6SM SCT100 BKN150
     FM270200 21012G22KT P6SM BKN100
     FM270600 VRB06KT P6SM BKN100
     FM271600 33010KT P6SM SCT070 BKN100=



000
FTUS45 KPUB 270109 AAA
TAFCOS
TAF AMD
KCOS 270109Z 2701/2724 17010G20KT P6SM SCT100 BKN150
     FM270200 21012G22KT P6SM BKN100
     FM270600 VRB06KT P6SM BKN100
     FM271600 33010KT P6SM SCT070 BKN100=



000
FTUS45 KPUB 270109 AAA
TAFCOS
TAF AMD
KCOS 270109Z 2701/2724 17010G20KT P6SM SCT100 BKN150
     FM270200 21012G22KT P6SM BKN100
     FM270600 VRB06KT P6SM BKN100
     FM271600 33010KT P6SM SCT070 BKN100=



000
FTUS45 KPUB 262341
TAFPUB
TAF
KPUB 262341Z 2700/2724 23020G30KT P6SM FEW100 SCT120 BKN170
     FM270300 22008KT P6SM SCT120 BKN170
     FM270600 VRB06KT P6SM SCT120 BKN150
     FM271800 34010KT P6SM SCT090 BKN120=



000
FTUS45 KPUB 262341
TAFCOS
TAF
KCOS 262341Z 2700/2724 21012G22KT P6SM SCT100 BKN150
     FM270200 21012G22KT P6SM BKN100
     FM270600 VRB06KT P6SM BKN100
     FM271600 33010KT P6SM SCT070 BKN100=



000
FTUS45 KPUB 262341
TAFALS
TAF
KALS 262341Z 2700/2724 15010G20KT P6SM VCTS SCT070CB BKN120
     FM270100 20010KT P6SM VCTS SCT060CB BKN090
     FM270400 18009KT P6SM SCT080 BKN150
     FM271500 19009KT P6SM SCT070 BKN130=



000
FTUS45 KPUB 262341
TAFPUB
TAF
KPUB 262341Z 2700/2724 23020G30KT P6SM FEW100 SCT120 BKN170
     FM270300 22008KT P6SM SCT120 BKN170
     FM270600 VRB06KT P6SM SCT120 BKN150
     FM271800 34010KT P6SM SCT090 BKN120=



000
FTUS45 KPUB 262341
TAFCOS
TAF
KCOS 262341Z 2700/2724 21012G22KT P6SM SCT100 BKN150
     FM270200 21012G22KT P6SM BKN100
     FM270600 VRB06KT P6SM BKN100
     FM271600 33010KT P6SM SCT070 BKN100=



000
FTUS45 KPUB 262341
TAFALS
TAF
KALS 262341Z 2700/2724 15010G20KT P6SM VCTS SCT070CB BKN120
     FM270100 20010KT P6SM VCTS SCT060CB BKN090
     FM270400 18009KT P6SM SCT080 BKN150
     FM271500 19009KT P6SM SCT070 BKN130=



000
FTUS45 KPUB 262341
TAFCOS
TAF
KCOS 262341Z 2700/2724 21012G22KT P6SM SCT100 BKN150
     FM270200 21012G22KT P6SM BKN100
     FM270600 VRB06KT P6SM BKN100
     FM271600 33010KT P6SM SCT070 BKN100=



000
FTUS45 KPUB 262341
TAFALS
TAF
KALS 262341Z 2700/2724 15010G20KT P6SM VCTS SCT070CB BKN120
     FM270100 20010KT P6SM VCTS SCT060CB BKN090
     FM270400 18009KT P6SM SCT080 BKN150
     FM271500 19009KT P6SM SCT070 BKN130=



000
FTUS45 KPUB 262341
TAFPUB
TAF
KPUB 262341Z 2700/2724 23020G30KT P6SM FEW100 SCT120 BKN170
     FM270300 22008KT P6SM SCT120 BKN170
     FM270600 VRB06KT P6SM SCT120 BKN150
     FM271800 34010KT P6SM SCT090 BKN120=



000
FTUS45 KPUB 262341
TAFALS
TAF
KALS 262341Z 2700/2724 15010G20KT P6SM VCTS SCT070CB BKN120
     FM270100 20010KT P6SM VCTS SCT060CB BKN090
     FM270400 18009KT P6SM SCT080 BKN150
     FM271500 19009KT P6SM SCT070 BKN130=



000
FTUS45 KPUB 262341
TAFPUB
TAF
KPUB 262341Z 2700/2724 23020G30KT P6SM FEW100 SCT120 BKN170
     FM270300 22008KT P6SM SCT120 BKN170
     FM270600 VRB06KT P6SM SCT120 BKN150
     FM271800 34010KT P6SM SCT090 BKN120=



000
FTUS45 KPUB 262341
TAFCOS
TAF
KCOS 262341Z 2700/2724 21012G22KT P6SM SCT100 BKN150
     FM270200 21012G22KT P6SM BKN100
     FM270600 VRB06KT P6SM BKN100
     FM271600 33010KT P6SM SCT070 BKN100=



000
FTUS45 KPUB 262104 AAC
TAFPUB
TAF AMD
KPUB 262104Z 2621/2718 VRB06KT P6SM SCT120 OVC200
     FM270000 21012G22KT P6SM SCT120 BKN200
     FM270300 22008KT P6SM SCT120 BKN200
     FM270600 VRB05KT P6SM BKN150=



000
FTUS45 KPUB 262104 AAC
TAFPUB
TAF AMD
KPUB 262104Z 2621/2718 VRB06KT P6SM SCT120 OVC200
     FM270000 21012G22KT P6SM SCT120 BKN200
     FM270300 22008KT P6SM SCT120 BKN200
     FM270600 VRB05KT P6SM BKN150=



000
FTUS45 KPUB 262104 AAC
TAFPUB
TAF AMD
KPUB 262104Z 2621/2718 VRB06KT P6SM SCT120 OVC200
     FM270000 21012G22KT P6SM SCT120 BKN200
     FM270300 22008KT P6SM SCT120 BKN200
     FM270600 VRB05KT P6SM BKN150=



000
FTUS45 KPUB 262104 AAC
TAFPUB
TAF AMD
KPUB 262104Z 2621/2718 VRB06KT P6SM SCT120 OVC200
     FM270000 21012G22KT P6SM SCT120 BKN200
     FM270300 22008KT P6SM SCT120 BKN200
     FM270600 VRB05KT P6SM BKN150=



000
FTUS45 KPUB 262015 CCA
TAFALS
TAF COR
KALS 262015Z 2620/2718 24010G20KT P6SM VCTS SCT080CB BKN140
      TEMPO 2620/2624 VRB20G40KT 3SM TSRA BKN040CB
     FM270000 22013G23KT P6SM VCTS SCT080CB BKN130
     FM270100 20010KT P6SM VCTS SCT060CB BKN090
     FM270300 18009KT P6SM SCT080 BKN150
     FM271500 19009KT P6SM SCT070 BKN130=



000
FTUS45 KPUB 262015 CCA
TAFALS
TAF COR
KALS 262015Z 2620/2718 24010G20KT P6SM VCTS SCT080CB BKN140
      TEMPO 2620/2624 VRB20G40KT 3SM TSRA BKN040CB
     FM270000 22013G23KT P6SM VCTS SCT080CB BKN130
     FM270100 20010KT P6SM VCTS SCT060CB BKN090
     FM270300 18009KT P6SM SCT080 BKN150
     FM271500 19009KT P6SM SCT070 BKN130=



000
FTUS45 KPUB 262014 AAB
TAFALS
TAF AMD
KALS 262014Z 2620/2718 24010G200KT P6SM VCTS SCT080CB BKN140
      TEMPO 2620/2624 VRB20G40KT TSRA BKN040CB
     FM270000 22013G23KT P6SM VCTS SCT080CB BKN130
     FM270100 20010KT P6SM VCTS SCT060CB BKN090
     FM270300 18009KT P6SM SCT080 BKN150
     FM271500 19009KT P6SM SCT070 BKN130=



000
FTUS45 KPUB 262014 AAB
TAFALS
TAF AMD
KALS 262014Z 2620/2718 24010G200KT P6SM VCTS SCT080CB BKN140
      TEMPO 2620/2624 VRB20G40KT TSRA BKN040CB
     FM270000 22013G23KT P6SM VCTS SCT080CB BKN130
     FM270100 20010KT P6SM VCTS SCT060CB BKN090
     FM270300 18009KT P6SM SCT080 BKN150
     FM271500 19009KT P6SM SCT070 BKN130=



000
FTUS45 KPUB 262014 AAB
TAFALS
TAF AMD
KALS 262014Z 2620/2718 24010G200KT P6SM VCTS SCT080CB BKN140
      TEMPO 2620/2624 VRB20G40KT TSRA BKN040CB
     FM270000 22013G23KT P6SM VCTS SCT080CB BKN130
     FM270100 20010KT P6SM VCTS SCT060CB BKN090
     FM270300 18009KT P6SM SCT080 BKN150
     FM271500 19009KT P6SM SCT070 BKN130=



000
FTUS45 KPUB 262014 AAB
TAFALS
TAF AMD
KALS 262014Z 2620/2718 24010G200KT P6SM VCTS SCT080CB BKN140
      TEMPO 2620/2624 VRB20G40KT TSRA BKN040CB
     FM270000 22013G23KT P6SM VCTS SCT080CB BKN130
     FM270100 20010KT P6SM VCTS SCT060CB BKN090
     FM270300 18009KT P6SM SCT080 BKN150
     FM271500 19009KT P6SM SCT070 BKN130=



000
FTUS45 KPUB 261943 AAA
TAFALS
TAF AMD
KALS 261943Z 2620/2718 22010KT P6SM VCTS SCT080CB BKN140
     FM262200 22013G23KT P6SM VCTS SCT080CB BKN130
     FM270100 20010KT P6SM VCTS SCT060CB BKN090
     FM270300 18009KT P6SM SCT080 BKN150
     FM271500 19009KT P6SM SCT070 BKN130=



000
FTUS45 KPUB 261902 AAA
TAFCOS
TAF AMD
KCOS 261902Z 2619/2718 20012G22KT P6SM FEW110 BKN250
     FM262300 19012G22KT P6SM SCT100 BKN150
     FM270200 21012G22KT P6SM BKN100
     FM270600 16006KT P6SM BKN100
     FM271500 33010KT P6SM BKN100=



000
FTUS45 KPUB 261730
TAFCOS
TAF
KCOS 261730Z 2618/2718 17010KT P6SM FEW110 BKN250
     FM262000 19012G22KT P6SM SCT110 BKN200
     FM262300 19012G22KT P6SM SCT100 BKN150
     FM270200 21012G22KT P6SM BKN100
     FM270600 16006KT P6SM BKN100
     FM271500 33010KT P6SM BKN100=



000
FTUS45 KPUB 261730
TAFALS
TAF
KALS 261730Z 2618/2718 VRB06KT P6SM SCT110 OVC200
     FM262100 22013G23KT P6SM VCTS SCT080CB BKN130
     FM270100 20010KT P6SM VCTS SCT060CB BKN090
     FM270300 18009KT P6SM SCT080 BKN150
     FM271500 19009KT P6SM SCT070 BKN130=



000
FTUS45 KPUB 261730
TAFPUB
TAF
KPUB 261730Z 2618/2718 VRB06KT P6SM FEW120 OVC250
     FM262100 17010G20KT P6SM SCT120 OVC250
     FM270000 21012G22KT P6SM SCT120 BKN200
     FM270300 22008KT P6SM SCT120 BKN200
     FM270600 VRB05KT P6SM BKN150=



000
FTUS45 KPUB 261730
TAFPUB
TAF
KPUB 261730Z 2618/2718 VRB06KT P6SM FEW120 OVC250
     FM262100 17010G20KT P6SM SCT120 OVC250
     FM270000 21012G22KT P6SM SCT120 BKN200
     FM270300 22008KT P6SM SCT120 BKN200
     FM270600 VRB05KT P6SM BKN150=



000
FTUS45 KPUB 261730
TAFCOS
TAF
KCOS 261730Z 2618/2718 17010KT P6SM FEW110 BKN250
     FM262000 19012G22KT P6SM SCT110 BKN200
     FM262300 19012G22KT P6SM SCT100 BKN150
     FM270200 21012G22KT P6SM BKN100
     FM270600 16006KT P6SM BKN100
     FM271500 33010KT P6SM BKN100=



000
FTUS45 KPUB 261730
TAFPUB
TAF
KPUB 261730Z 2618/2718 VRB06KT P6SM FEW120 OVC250
     FM262100 17010G20KT P6SM SCT120 OVC250
     FM270000 21012G22KT P6SM SCT120 BKN200
     FM270300 22008KT P6SM SCT120 BKN200
     FM270600 VRB05KT P6SM BKN150=



000
FTUS45 KPUB 261730
TAFCOS
TAF
KCOS 261730Z 2618/2718 17010KT P6SM FEW110 BKN250
     FM262000 19012G22KT P6SM SCT110 BKN200
     FM262300 19012G22KT P6SM SCT100 BKN150
     FM270200 21012G22KT P6SM BKN100
     FM270600 16006KT P6SM BKN100
     FM271500 33010KT P6SM BKN100=



000
FTUS45 KPUB 261730
TAFALS
TAF
KALS 261730Z 2618/2718 VRB06KT P6SM SCT110 OVC200
     FM262100 22013G23KT P6SM VCTS SCT080CB BKN130
     FM270100 20010KT P6SM VCTS SCT060CB BKN090
     FM270300 18009KT P6SM SCT080 BKN150
     FM271500 19009KT P6SM SCT070 BKN130=



000
FTUS45 KPUB 261730
TAFALS
TAF
KALS 261730Z 2618/2718 VRB06KT P6SM SCT110 OVC200
     FM262100 22013G23KT P6SM VCTS SCT080CB BKN130
     FM270100 20010KT P6SM VCTS SCT060CB BKN090
     FM270300 18009KT P6SM SCT080 BKN150
     FM271500 19009KT P6SM SCT070 BKN130=



000
FTUS45 KPUB 261126
TAFPUB
TAF
KPUB 261126Z 2612/2712 25005KT P6SM FEW120 SCT250
     FM261900 18012G22KT P6SM SCT120 BKN250
     FM262100 17012G22KT P6SM SCT120 BKN250
     FM270300 27010KT P6SM VCTS SCT070CB BKN120
     FM270900 28007KT P6SM FEW070 BKN120=



000
FTUS45 KPUB 261126
TAFPUB
TAF
KPUB 261126Z 2612/2712 25005KT P6SM FEW120 SCT250
     FM261900 18012G22KT P6SM SCT120 BKN250
     FM262100 17012G22KT P6SM SCT120 BKN250
     FM270300 27010KT P6SM VCTS SCT070CB BKN120
     FM270900 28007KT P6SM FEW070 BKN120=



000
FTUS45 KPUB 261126
TAFALS
TAF
KALS 261126Z 2612/2712 VRB05KT P6SM FEW100 BKN200
     FM261800 21013G23KT P6SM VCTS SCT050CB BKN100
     FM270200 18010KT P6SM VCSH SCT050 BKN100=



000
FTUS45 KPUB 261126
TAFCOS
TAF
KCOS 261126Z 2612/2712 36005KT P6SM FEW110 BKN250
     FM261800 18012G22KT P6SM SCT110 BKN250
     FM262100 19015G25KT P6SM SCT110 BKN250
     FM270300 18010KT P6SM VCTS SCT060CB BKN110
     FM270900 02005KT P6SM FEW060 BKN110=



000
FTUS45 KPUB 261126
TAFALS
TAF
KALS 261126Z 2612/2712 VRB05KT P6SM FEW100 BKN200
     FM261800 21013G23KT P6SM VCTS SCT050CB BKN100
     FM270200 18010KT P6SM VCSH SCT050 BKN100=



000
FTUS45 KPUB 261126
TAFCOS
TAF
KCOS 261126Z 2612/2712 36005KT P6SM FEW110 BKN250
     FM261800 18012G22KT P6SM SCT110 BKN250
     FM262100 19015G25KT P6SM SCT110 BKN250
     FM270300 18010KT P6SM VCTS SCT060CB BKN110
     FM270900 02005KT P6SM FEW060 BKN110=



000
FTUS45 KPUB 261126
TAFCOS
TAF
KCOS 261126Z 2612/2712 36005KT P6SM FEW110 BKN250
     FM261800 18012G22KT P6SM SCT110 BKN250
     FM262100 19015G25KT P6SM SCT110 BKN250
     FM270300 18010KT P6SM VCTS SCT060CB BKN110
     FM270900 02005KT P6SM FEW060 BKN110=



000
FTUS45 KPUB 261126
TAFPUB
TAF
KPUB 261126Z 2612/2712 25005KT P6SM FEW120 SCT250
     FM261900 18012G22KT P6SM SCT120 BKN250
     FM262100 17012G22KT P6SM SCT120 BKN250
     FM270300 27010KT P6SM VCTS SCT070CB BKN120
     FM270900 28007KT P6SM FEW070 BKN120=



000
FTUS45 KPUB 261126
TAFALS
TAF
KALS 261126Z 2612/2712 VRB05KT P6SM FEW100 BKN200
     FM261800 21013G23KT P6SM VCTS SCT050CB BKN100
     FM270200 18010KT P6SM VCSH SCT050 BKN100=



000
FTUS45 KPUB 261126
TAFCOS
TAF
KCOS 261126Z 2612/2712 36005KT P6SM FEW110 BKN250
     FM261800 18012G22KT P6SM SCT110 BKN250
     FM262100 19015G25KT P6SM SCT110 BKN250
     FM270300 18010KT P6SM VCTS SCT060CB BKN110
     FM270900 02005KT P6SM FEW060 BKN110=



000
FTUS45 KPUB 261126
TAFALS
TAF
KALS 261126Z 2612/2712 VRB05KT P6SM FEW100 BKN200
     FM261800 21013G23KT P6SM VCTS SCT050CB BKN100
     FM270200 18010KT P6SM VCSH SCT050 BKN100=



000
FTUS45 KPUB 261126
TAFPUB
TAF
KPUB 261126Z 2612/2712 25005KT P6SM FEW120 SCT250
     FM261900 18012G22KT P6SM SCT120 BKN250
     FM262100 17012G22KT P6SM SCT120 BKN250
     FM270300 27010KT P6SM VCTS SCT070CB BKN120
     FM270900 28007KT P6SM FEW070 BKN120=



000
FTUS45 KPUB 260521
TAFCOS
TAF
KCOS 260521Z 2606/2706 03007KT P6SM BKN200
     FM261800 18012KT P6SM SCT100 BKN200
     FM262100 19012KT P6SM SCT100 BKN150
     FM270300 18009KT P6SM BKN150=



000
FTUS45 KPUB 260521
TAFALS
TAF
KALS 260521Z 2606/2706 VRB06KT P6SM SCT100 BKN200
     FM261800 21012KT P6SM VCTS SCT100CB BKN150
     FM270200 VRB06KT P6SM SCT100 BKN150=



000
FTUS45 KPUB 260521
TAFPUB
TAF
KPUB 260521Z 2606/2706 VRB06KT P6SM BKN200
     FM261900 24012KT P6SM SCT100 BKN200
     FM262100 19012KT P6SM SCT100 BKN150
     FM270300 24007KT P6SM BKN150=



000
FTUS45 KPUB 260521
TAFCOS
TAF
KCOS 260521Z 2606/2706 03007KT P6SM BKN200
     FM261800 18012KT P6SM SCT100 BKN200
     FM262100 19012KT P6SM SCT100 BKN150
     FM270300 18009KT P6SM BKN150=



000
FTUS45 KPUB 260521
TAFALS
TAF
KALS 260521Z 2606/2706 VRB06KT P6SM SCT100 BKN200
     FM261800 21012KT P6SM VCTS SCT100CB BKN150
     FM270200 VRB06KT P6SM SCT100 BKN150=



000
FTUS45 KPUB 260521
TAFPUB
TAF
KPUB 260521Z 2606/2706 VRB06KT P6SM BKN200
     FM261900 24012KT P6SM SCT100 BKN200
     FM262100 19012KT P6SM SCT100 BKN150
     FM270300 24007KT P6SM BKN150=



000
FTUS45 KPUB 260521
TAFALS
TAF
KALS 260521Z 2606/2706 VRB06KT P6SM SCT100 BKN200
     FM261800 21012KT P6SM VCTS SCT100CB BKN150
     FM270200 VRB06KT P6SM SCT100 BKN150=



000
FTUS45 KPUB 260521
TAFCOS
TAF
KCOS 260521Z 2606/2706 03007KT P6SM BKN200
     FM261800 18012KT P6SM SCT100 BKN200
     FM262100 19012KT P6SM SCT100 BKN150
     FM270300 18009KT P6SM BKN150=



000
FTUS45 KPUB 260521
TAFPUB
TAF
KPUB 260521Z 2606/2706 VRB06KT P6SM BKN200
     FM261900 24012KT P6SM SCT100 BKN200
     FM262100 19012KT P6SM SCT100 BKN150
     FM270300 24007KT P6SM BKN150=



000
FTUS45 KPUB 260521
TAFPUB
TAF
KPUB 260521Z 2606/2706 VRB06KT P6SM BKN200
     FM261900 24012KT P6SM SCT100 BKN200
     FM262100 19012KT P6SM SCT100 BKN150
     FM270300 24007KT P6SM BKN150=



000
FTUS45 KPUB 260521
TAFALS
TAF
KALS 260521Z 2606/2706 VRB06KT P6SM SCT100 BKN200
     FM261800 21012KT P6SM VCTS SCT100CB BKN150
     FM270200 VRB06KT P6SM SCT100 BKN150=



000
FTUS45 KPUB 260521
TAFCOS
TAF
KCOS 260521Z 2606/2706 03007KT P6SM BKN200
     FM261800 18012KT P6SM SCT100 BKN200
     FM262100 19012KT P6SM SCT100 BKN150
     FM270300 18009KT P6SM BKN150=



    US Dept of Commerce
    National Oceanic and Atmospheric Administration
    National Weather Service
    1325 East West Highway
    Silver Spring, MD 20910
    Page Author: NWS Internet Services Team
Disclaimer
Information Quality
Credits
Glossary
Privacy Policy
Freedom of Information Act (FOIA)
About Us
Career Opportunities